Time;durP1;ratioP1;P1;durP2;ratioP2;P2;SDS_P1;SDS_P2;PMS_P1;PMS_P2;Temp;Humidity;BMP_temperature;BMP_pressure;BME280_temperature;BME280_humidity;BME280_pressure;Samples;Min_cycle;Max_cycle;Signal;HPM_P1;HPM_P2
2022/08/01 00:01:23;;;;;;;5.05;2.70;;;;;;;;;;5064146;28;20469;-60
2022/08/01 00:03:49;;;;;;;3.65;2.50;;;;;;;;;;5050621;28;20029;-60
2022/08/01 00:06:15;;;;;;;4.00;2.45;;;;;;;;;;5054520;28;20114;-60
2022/08/01 00:08:41;;;;;;;4.90;2.90;;;;;;;;;;5046824;28;20393;-61
2022/08/01 00:11:09;;;;;;;2.63;2.40;;;;;;;;;;5050609;28;20036;-60
2022/08/01 00:13:34;;;;;;;5.90;3.05;;;;;;;;;;5054775;28;20040;-60
2022/08/01 00:16:00;;;;;;;5.60;2.65;;;;;;;;;;5046650;28;20400;-60
2022/08/01 00:18:26;;;;;;;4.18;2.83;;;;;;;;;;5052600;28;20111;-60
2022/08/01 00:20:52;;;;;;;3.63;2.63;;;;;;;;;;5047547;28;20028;-60
2022/08/01 00:23:18;;;;;;;4.15;2.88;;;;;;;;;;5054407;28;20524;-61
2022/08/01 00:25:44;;;;;;;4.40;3.08;;;;;;;;;;5059550;28;20044;-60
2022/08/01 00:28:11;;;;;;;4.80;2.95;;;;;;;;;;5054996;28;20057;-60
2022/08/01 00:30:37;;;;;;;5.57;3.17;;;;;;;;;;5046884;28;20107;-60
2022/08/01 00:33:03;;;;;;;3.55;2.40;;;;;;;;;;5056562;28;20033;-60
2022/08/01 00:35:29;;;;;;;4.30;3.00;;;;;;;;;;5054626;28;20033;-60
2022/08/01 00:37:55;;;;;;;4.57;3.08;;;;;;;;;;5054573;28;20024;-60
2022/08/01 00:40:21;;;;;;;7.32;3.30;;;;;;;;;;5049565;28;20029;-60
2022/08/01 00:42:47;;;;;;;4.43;3.40;;;;;;;;;;5054890;28;20036;-60
2022/08/01 00:45:13;;;;;;;5.70;3.08;;;;;;;;;;5053655;28;20082;-60
2022/08/01 00:47:39;;;;;;;5.07;3.40;;;;;;;;;;5039808;28;20439;-60
2022/08/01 00:50:05;;;;;;;5.50;3.20;;;;;;;;;;5042814;28;20437;-60
2022/08/01 00:52:32;;;;;;;4.18;3.00;;;;;;;;;;5052378;28;20033;-59
2022/08/01 00:54:58;;;;;;;4.47;3.10;;;;;;;;;;5052792;28;20032;-60
2022/08/01 00:57:24;;;;;;;3.95;2.80;;;;;;;;;;5056856;28;20056;-60
2022/08/01 00:59:50;;;;;;;5.47;3.13;;;;;;;;;;5053329;28;20048;-60
2022/08/01 01:02:17;;;;;;;3.88;2.83;;;;;;;;;;5060920;28;20090;-60
2022/08/01 01:04:44;;;;;;;8.52;2.92;;;;;;;;;;5044231;28;20036;-60
2022/08/01 01:07:19;;;;;;;8.02;3.03;;;;;;;;;;5050724;28;20027;-59
2022/08/01 01:09:48;;;;;;;4.32;3.10;;;;;;;;;;5047839;28;20518;-60
2022/08/01 01:12:20;;;;;;;3.80;3.10;;;;;;;;;;5053986;28;20044;-60
2022/08/01 01:14:59;;;;;;;10.05;3.30;;;;;;;;;;5058163;28;20036;-60
2022/08/01 01:17:29;;;;;;;4.00;3.25;;;;;;;;;;5053176;28;20400;-60
2022/08/01 01:19:56;;;;;;;6.03;3.15;;;;;;;;;;5047545;28;20019;-60
2022/08/01 01:22:26;;;;;;;6.35;3.47;;;;;;;;;;5047543;28;20068;-61
2022/08/01 01:25:11;;;;;;;4.75;3.50;;;;;;;;;;5054662;28;20522;-60
2022/08/01 01:27:43;;;;;;;5.43;3.28;;;;;;;;;;5057003;28;20029;-61
2022/08/01 01:30:09;;;;;;;4.10;2.88;;;;;;;;;;5055340;28;20032;-60
2022/08/01 01:32:45;;;;;;;6.40;3.65;;;;;;;;;;5055555;28;20160;-60
2022/08/01 01:35:16;;;;;;;5.38;3.42;;;;;;;;;;5054013;28;20040;-60
2022/08/01 01:37:42;;;;;;;4.75;3.53;;;;;;;;;;5050818;28;20029;-60
2022/08/01 01:40:10;;;;;;;4.60;3.42;;;;;;;;;;5045767;28;20036;-61
2022/08/01 01:42:36;;;;;;;3.63;2.88;;;;;;;;;;5053821;28;20029;-61
2022/08/01 01:45:04;;;;;;;3.90;3.20;;;;;;;;;;5044214;28;20068;-62
2022/08/01 01:47:30;;;;;;;5.60;3.45;;;;;;;;;;5037803;28;20039;-61
2022/08/01 01:50:00;;;;;;;4.18;3.08;;;;;;;;;;5048702;28;20021;-60
2022/08/01 01:52:26;;;;;;;4.35;3.47;;;;;;;;;;5044449;28;20039;-59
2022/08/01 01:54:53;;;;;;;4.82;3.55;;;;;;;;;;5050015;28;20594;-59
2022/08/01 01:57:19;;;;;;;9.35;4.07;;;;;;;;;;5055207;28;20404;-60
2022/08/01 01:59:46;;;;;;;5.95;3.40;;;;;;;;;;5052808;28;20384;-60
2022/08/01 02:02:13;;;;;;;5.47;3.22;;;;;;;;;;5053970;28;20031;-60
2022/08/01 02:04:42;;;;;;;4.95;3.65;;;;;;;;;;5063475;28;20103;-61
2022/08/01 02:07:08;;;;;;;4.22;3.58;;;;;;;;;;5059484;28;20043;-61
2022/08/01 02:09:35;;;;;;;4.38;3.45;;;;;;;;;;5040012;28;20025;-60
2022/08/01 02:12:02;;;;;;;6.25;3.33;;;;;;;;;;5052464;28;20473;-60
2022/08/01 02:14:29;;;;;;;8.73;4.00;;;;;;;;;;5055143;28;20033;-59
2022/08/01 02:16:58;;;;;;;3.88;3.47;;;;;;;;;;5056113;28;20055;-60
2022/08/01 02:19:24;;;;;;;5.20;3.53;;;;;;;;;;5050208;28;20100;-61
2022/08/01 02:21:56;;;;;;;6.53;4.03;;;;;;;;;;5041075;28;20116;-61
2022/08/01 02:24:31;;;;;;;4.57;3.47;;;;;;;;;;5052313;28;20071;-60
2022/08/01 02:27:00;;;;;;;4.50;3.67;;;;;;;;;;5052041;28;20037;-59
2022/08/01 02:29:33;;;;;;;4.47;3.63;;;;;;;;;;5049719;28;20035;-60
2022/08/01 02:32:00;;;;;;;5.97;4.35;;;;;;;;;;5050740;28;20124;-60
2022/08/01 02:34:28;;;;;;;5.25;4.20;;;;;;;;;;5047063;28;20473;-60
2022/08/01 02:36:56;;;;;;;7.25;4.43;;;;;;;;;;5046231;28;20036;-60
2022/08/01 02:39:23;;;;;;;5.00;3.97;;;;;;;;;;5060001;28;20036;-60
2022/08/01 02:41:50;;;;;;;6.68;4.25;;;;;;;;;;5055227;28;20033;-60
2022/08/01 02:44:20;;;;;;;7.07;4.38;;;;;;;;;;5045224;28;20029;-60
2022/08/01 02:46:55;;;;;;;5.82;4.13;;;;;;;;;;5050349;28;20037;-60
2022/08/01 02:49:21;;;;;;;5.75;4.10;;;;;;;;;;5043876;28;20025;-60
2022/08/01 02:51:48;;;;;;;5.18;3.90;;;;;;;;;;5060405;28;20036;-60
2022/08/01 02:54:15;;;;;;;4.40;4.00;;;;;;;;;;5049085;28;20400;-59
2022/08/01 02:56:42;;;;;;;6.82;4.50;;;;;;;;;;5060060;28;20045;-60
2022/08/01 02:59:11;;;;;;;5.72;3.85;;;;;;;;;;5042768;28;20124;-60
2022/08/01 03:01:38;;;;;;;4.80;3.83;;;;;;;;;;5047683;28;20087;-60
2022/08/01 03:04:05;;;;;;;7.93;3.80;;;;;;;;;;5058915;28;20103;-61
2022/08/01 03:06:32;;;;;;;7.95;4.00;;;;;;;;;;5064116;28;20503;-60
2022/08/01 03:08:58;;;;;;;8.55;4.30;;;;;;;;;;5051953;28;20041;-61
2022/08/01 03:11:24;;;;;;;4.95;4.22;;;;;;;;;;5058039;28;20534;-61
2022/08/01 03:13:52;;;;;;;9.05;4.10;;;;;;;;;;5057957;28;20162;-60
2022/08/01 03:16:19;;;;;;;6.03;4.00;;;;;;;;;;5050437;28;20516;-60
2022/08/01 03:18:45;;;;;;;4.30;3.72;;;;;;;;;;5048119;28;20032;-60
2022/08/01 03:21:12;;;;;;;5.20;4.20;;;;;;;;;;5056180;28;20471;-61
2022/08/01 03:23:38;;;;;;;5.63;4.40;;;;;;;;;;5054358;28;20028;-60
2022/08/01 03:26:05;;;;;;;5.78;4.40;;;;;;;;;;5052659;28;20483;-60
2022/08/01 03:28:32;;;;;;;5.32;4.10;;;;;;;;;;5062787;28;20611;-61
2022/08/01 03:30:59;;;;;;;7.88;4.75;;;;;;;;;;5063075;28;20468;-60
2022/08/01 03:33:26;;;;;;;6.93;4.43;;;;;;;;;;5053726;28;20036;-60
2022/08/01 03:35:54;;;;;;;5.90;4.22;;;;;;;;;;5041134;28;20066;-60
2022/08/01 03:38:23;;;;;;;4.82;4.10;;;;;;;;;;5053199;28;20038;-61
2022/08/01 03:40:52;;;;;;;4.63;3.80;;;;;;;;;;5057368;28;20032;-61
2022/08/01 03:43:31;;;;;;;5.90;4.57;;;;;;;;;;5063062;28;20518;-60
2022/08/01 03:46:00;;;;;;;6.05;4.13;;;;;;;;;;5047933;28;20029;-59
2022/08/01 03:48:29;;;;;;;5.13;4.03;;;;;;;;;;5053208;28;20029;-60
2022/08/01 03:50:56;;;;;;;6.70;4.30;;;;;;;;;;5057296;28;20028;-60
2022/08/01 03:53:26;;;;;;;4.82;3.92;;;;;;;;;;5048552;28;20032;-60
2022/08/01 03:55:53;;;;;;;9.23;5.10;;;;;;;;;;5041091;28;20029;-61
2022/08/01 03:58:19;;;;;;;6.78;4.38;;;;;;;;;;5064400;28;20119;-61
2022/08/01 04:00:46;;;;;;;7.65;4.60;;;;;;;;;;5059495;28;20559;-60
2022/08/01 04:03:14;;;;;;;7.25;5.05;;;;;;;;;;5056510;28;20043;-62
2022/08/01 04:05:42;;;;;;;8.35;5.53;;;;;;;;;;5049148;28;20031;-60
2022/08/01 04:08:08;;;;;;;5.85;4.38;;;;;;;;;;5058216;28;20033;-60
2022/08/01 04:10:34;;;;;;;7.07;4.78;;;;;;;;;;5053402;28;20060;-60
2022/08/01 04:13:00;;;;;;;8.18;4.95;;;;;;;;;;5058391;28;20584;-60
2022/08/01 04:15:26;;;;;;;6.47;5.18;;;;;;;;;;5057567;28;20021;-60
2022/08/01 04:17:53;;;;;;;7.05;5.15;;;;;;;;;;5056698;28;20017;-61
2022/08/01 04:20:19;;;;;;;6.65;4.60;;;;;;;;;;5054683;28;20029;-60
2022/08/01 04:22:45;;;;;;;5.85;4.57;;;;;;;;;;5058464;28;20028;-60
2022/08/01 04:25:15;;;;;;;4.60;4.10;;;;;;;;;;5052044;28;20468;-60
2022/08/01 04:27:43;;;;;;;5.78;4.70;;;;;;;;;;5052739;28;20392;-60
2022/08/01 04:30:09;;;;;;;7.05;4.55;;;;;;;;;;5053556;28;20029;-60
2022/08/01 04:32:37;;;;;;;10.02;4.60;;;;;;;;;;5053553;28;20029;-60
2022/08/01 04:35:05;;;;;;;6.22;5.13;;;;;;;;;;5054359;28;20424;-60
2022/08/01 04:37:32;;;;;;;10.93;5.53;;;;;;;;;;5061593;28;20021;-60
2022/08/01 04:39:59;;;;;;;6.35;4.75;;;;;;;;;;5059296;28;20039;-60
2022/08/01 04:42:25;;;;;;;6.80;5.25;;;;;;;;;;5059714;28;20403;-60
2022/08/01 04:44:51;;;;;;;6.05;4.78;;;;;;;;;;5056782;28;20472;-60
2022/08/01 04:47:17;;;;;;;7.50;4.90;;;;;;;;;;5055694;28;20107;-60
2022/08/01 04:49:45;;;;;;;6.88;4.68;;;;;;;;;;5059173;28;20090;-60
2022/08/01 04:52:12;;;;;;;6.28;5.13;;;;;;;;;;5049465;28;20044;-61
2022/08/01 04:54:38;;;;;;;7.47;4.90;;;;;;;;;;5050503;28;20028;-61
2022/08/01 04:57:04;;;;;;;6.10;4.60;;;;;;;;;;5060478;28;20119;-61
2022/08/01 04:59:40;;;;;;;10.45;5.78;;;;;;;;;;5051840;28;20095;-61
2022/08/01 05:02:13;;;;;;;7.80;4.97;;;;;;;;;;5053605;28;20029;-62
2022/08/01 05:04:40;;;;;;;8.32;5.53;;;;;;;;;;5045649;28;20063;-60
2022/08/01 05:07:06;;;;;;;7.07;5.47;;;;;;;;;;5052002;28;20415;-60
2022/08/01 05:09:33;;;;;;;10.48;6.60;;;;;;;;;;5056945;28;20543;-61
2022/08/01 05:12:00;;;;;;;6.55;4.90;;;;;;;;;;5055129;28;20071;-60
2022/08/01 05:14:26;;;;;;;9.30;4.90;;;;;;;;;;5056194;28;20023;-60
2022/08/01 05:16:53;;;;;;;6.97;5.82;;;;;;;;;;5051277;28;20056;-60
2022/08/01 05:19:19;;;;;;;6.75;4.97;;;;;;;;;;5059145;28;20024;-60
2022/08/01 05:21:45;;;;;;;8.43;5.90;;;;;;;;;;5056336;28;20380;-60
2022/08/01 05:24:12;;;;;;;6.75;5.00;;;;;;;;;;5053572;28;20037;-61
2022/08/01 05:26:38;;;;;;;6.45;5.30;;;;;;;;;;5048979;28;20025;-60
2022/08/01 05:29:04;;;;;;;12.02;6.43;;;;;;;;;;5051460;28;20041;-61
2022/08/01 05:31:33;;;;;;;7.75;4.80;;;;;;;;;;5051191;28;20048;-60
2022/08/01 05:33:59;;;;;;;4.75;4.15;;;;;;;;;;5050446;28;20025;-60
2022/08/01 05:36:25;;;;;;;8.20;6.22;;;;;;;;;;5055665;28;20029;-60
2022/08/01 05:38:51;;;;;;;7.78;5.25;;;;;;;;;;5054942;28;20056;-62
2022/08/01 05:41:17;;;;;;;6.65;4.55;;;;;;;;;;5055958;28;20035;-61
2022/08/01 05:43:43;;;;;;;8.43;4.97;;;;;;;;;;5055872;28;20048;-60
2022/08/01 05:46:09;;;;;;;6.00;4.38;;;;;;;;;;5050017;28;20036;-59
2022/08/01 05:48:35;;;;;;;5.22;4.13;;;;;;;;;;5050085;28;20040;-61
2022/08/01 05:51:01;;;;;;;5.75;4.30;;;;;;;;;;5040397;28;20534;-61
2022/08/01 05:53:27;;;;;;;4.63;3.85;;;;;;;;;;5058941;28;20028;-60
2022/08/01 05:55:53;;;;;;;4.20;3.60;;;;;;;;;;5055347;28;20074;-61
2022/08/01 05:58:19;;;;;;;4.30;3.70;;;;;;;;;;5047357;28;20055;-60
2022/08/01 06:00:45;;;;;;;5.15;3.47;;;;;;;;;;5049573;28;20028;-60
2022/08/01 06:03:11;;;;;;;6.43;3.90;;;;;;;;;;5052599;28;20044;-60
2022/08/01 06:05:37;;;;;;;3.95;3.55;;;;;;;;;;5053938;28;20029;-60
2022/08/01 06:08:04;;;;;;;4.35;3.42;;;;;;;;;;5044047;28;20024;-60
2022/08/01 06:10:30;;;;;;;3.38;3.08;;;;;;;;;;5052457;28;20029;-60
2022/08/01 06:12:56;;;;;;;4.50;3.15;;;;;;;;;;5054361;28;20021;-61
2022/08/01 06:15:22;;;;;;;5.30;3.58;;;;;;;;;;5057537;28;20024;-61
2022/08/01 06:17:48;;;;;;;5.03;3.67;;;;;;;;;;5049316;28;20041;-61
2022/08/01 06:20:14;;;;;;;4.65;3.10;;;;;;;;;;5050090;28;20033;-60
2022/08/01 06:22:40;;;;;;;4.55;3.05;;;;;;;;;;5043293;28;20080;-60
2022/08/01 06:25:06;;;;;;;4.53;2.50;;;;;;;;;;5045693;28;20020;-61
2022/08/01 06:27:35;;;;;;;4.15;2.83;;;;;;;;;;5049312;28;20441;-60
2022/08/01 06:30:01;;;;;;;4.65;3.20;;;;;;;;;;5041471;28;20033;-60
2022/08/01 06:32:27;;;;;;;4.63;3.47;;;;;;;;;;5043298;28;20037;-60
2022/08/01 06:34:53;;;;;;;5.20;3.47;;;;;;;;;;5039345;28;20034;-63
2022/08/01 06:37:19;;;;;;;5.25;3.25;;;;;;;;;;5053409;28;20039;-60
2022/08/01 06:39:45;;;;;;;3.75;3.20;;;;;;;;;;5058465;28;20024;-61
2022/08/01 06:42:11;;;;;;;4.60;3.25;;;;;;;;;;5049076;28;20028;-60
2022/08/01 06:44:37;;;;;;;5.07;3.60;;;;;;;;;;5046475;28;20038;-60
2022/08/01 06:47:03;;;;;;;5.80;3.53;;;;;;;;;;5049675;28;20392;-60
2022/08/01 06:49:29;;;;;;;4.53;3.00;;;;;;;;;;5050539;28;20029;-60
2022/08/01 06:51:55;;;;;;;4.07;3.20;;;;;;;;;;5049509;28;20037;-60
2022/08/01 06:54:21;;;;;;;3.03;2.28;;;;;;;;;;5046531;28;20052;-60
2022/08/01 06:56:47;;;;;;;3.35;2.80;;;;;;;;;;5048924;28;20071;-61
2022/08/01 06:59:14;;;;;;;4.45;2.55;;;;;;;;;;5044179;28;20056;-60
2022/08/01 07:01:40;;;;;;;3.90;2.38;;;;;;;;;;5046266;28;20107;-61
2022/08/01 07:04:06;;;;;;;3.17;2.72;;;;;;;;;;5049126;28;20025;-61
2022/08/01 07:06:32;;;;;;;4.43;2.83;;;;;;;;;;5049053;28;20578;-60
2022/08/01 07:09:00;;;;;;;4.40;2.55;;;;;;;;;;5041682;28;20111;-60
2022/08/01 07:11:26;;;;;;;3.13;2.80;;;;;;;;;;5051303;28;20079;-61
2022/08/01 07:13:52;;;;;;;3.10;2.60;;;;;;;;;;5050031;28;20021;-61
2022/08/01 07:16:18;;;;;;;5.75;2.88;;;;;;;;;;5038114;28;20164;-63
2022/08/01 07:18:44;;;;;;;3.45;2.70;;;;;;;;;;5053041;28;20016;-60
2022/08/01 07:21:11;;;;;;;6.20;3.47;;;;;;;;;;5052567;28;20115;-60
2022/08/01 07:23:37;;;;;;;3.40;2.50;;;;;;;;;;5042169;28;20041;-60
2022/08/01 07:26:04;;;;;;;5.20;2.60;;;;;;;;;;5051141;28;20032;-61
2022/08/01 07:28:30;;;;;;;5.20;3.58;;;;;;;;;;5051048;28;20035;-61
2022/08/01 07:30:56;;;;;;;5.50;4.05;;;;;;;;;;5044681;28;20026;-61
2022/08/01 07:33:22;;;;;;;6.60;4.22;;;;;;;;;;5060971;28;20539;-61
2022/08/01 07:35:49;;;;;;;5.93;4.30;;;;;;;;;;5049785;28;20028;-61
2022/08/01 07:38:16;;;;;;;4.47;3.80;;;;;;;;;;5044610;28;20027;-61
2022/08/01 07:40:43;;;;;;;5.82;4.32;;;;;;;;;;5059823;28;20082;-61
2022/08/01 07:43:08;;;;;;;7.65;4.68;;;;;;;;;;5050600;28;20385;-60
2022/08/01 07:45:34;;;;;;;5.85;4.57;;;;;;;;;;5049931;28;20037;-60
2022/08/01 07:48:04;;;;;;;8.45;4.28;;;;;;;;;;5049313;28;20517;-60
2022/08/01 07:50:31;;;;;;;4.95;3.97;;;;;;;;;;5062460;28;20059;-61
2022/08/01 07:52:57;;;;;;;5.78;3.83;;;;;;;;;;5047479;28;20025;-60
2022/08/01 07:55:23;;;;;;;9.02;3.58;;;;;;;;;;5053631;28;20021;-60
2022/08/01 07:57:49;;;;;;;5.82;3.65;;;;;;;;;;5067011;28;20074;-60
2022/08/01 08:00:15;;;;;;;5.57;3.80;;;;;;;;;;5055735;28;20025;-61
2022/08/01 08:02:41;;;;;;;6.07;3.80;;;;;;;;;;5051920;28;20035;-60
2022/08/01 08:05:07;;;;;;;3.95;2.88;;;;;;;;;;5050250;28;20017;-60
2022/08/01 08:07:33;;;;;;;7.03;2.80;;;;;;;;;;5051706;28;20025;-61
2022/08/01 08:09:59;;;;;;;3.17;2.33;;;;;;;;;;5057027;28;20029;-61
2022/08/01 08:12:25;;;;;;;2.05;1.85;;;;;;;;;;5055141;28;20165;-61
2022/08/01 08:14:51;;;;;;;3.67;1.77;;;;;;;;;;5056776;28;20100;-61
2022/08/01 08:17:17;;;;;;;3.65;1.73;;;;;;;;;;5052877;28;20072;-61
2022/08/01 08:19:44;;;;;;;10.00;1.60;;;;;;;;;;5063088;28;20032;-62
2022/08/01 08:22:10;;;;;;;2.78;1.73;;;;;;;;;;5052097;28;20029;-60
2022/08/01 08:24:36;;;;;;;2.08;1.30;;;;;;;;;;5053299;28;20036;-61
2022/08/01 08:27:03;;;;;;;3.17;1.20;;;;;;;;;;5053628;28;20029;-61
2022/08/01 08:29:31;;;;;;;1.42;1.13;;;;;;;;;;5067436;28;20538;-61
2022/08/01 08:31:57;;;;;;;7.22;1.80;;;;;;;;;;5056169;28;20444;-61
2022/08/01 08:34:24;;;;;;;2.05;1.05;;;;;;;;;;5051308;28;20071;-61
2022/08/01 08:36:50;;;;;;;3.05;0.90;;;;;;;;;;5048639;28;20029;-60
2022/08/01 08:39:16;;;;;;;2.25;1.08;;;;;;;;;;5051370;28;20653;-60
2022/08/01 08:41:42;;;;;;;2.05;1.20;;;;;;;;;;5052546;28;20033;-61
2022/08/01 08:44:09;;;;;;;4.97;1.20;;;;;;;;;;5049163;28;20705;-61
2022/08/01 08:46:40;;;;;;;1.73;1.30;;;;;;;;;;5053043;28;20032;-61
2022/08/01 08:49:07;;;;;;;2.50;1.25;;;;;;;;;;5045612;28;20063;-61
2022/08/01 08:51:34;;;;;;;2.03;0.95;;;;;;;;;;5050381;28;20035;-60
2022/08/01 08:54:01;;;;;;;2.05;1.50;;;;;;;;;;5045052;28;20100;-61
2022/08/01 08:56:29;;;;;;;1.75;1.10;;;;;;;;;;5050356;28;20021;-61
2022/08/01 08:58:55;;;;;;;2.05;1.05;;;;;;;;;;5051696;28;20495;-61
2022/08/01 09:01:22;;;;;;;2.38;1.20;;;;;;;;;;5049382;28;20037;-60
2022/08/01 09:03:48;;;;;;;2.03;1.25;;;;;;;;;;5052675;28;20772;-61
2022/08/01 09:06:14;;;;;;;4.43;1.17;;;;;;;;;;5052464;28;20025;-61
2022/08/01 09:08:40;;;;;;;2.92;1.20;;;;;;;;;;5049993;28;20120;-61
2022/08/01 09:11:06;;;;;;;3.13;1.40;;;;;;;;;;5045401;28;20059;-60
2022/08/01 09:13:32;;;;;;;2.15;1.20;;;;;;;;;;5048165;28;20056;-61
2022/08/01 09:16:01;;;;;;;2.17;1.17;;;;;;;;;;5046868;28;20440;-62
2022/08/01 09:18:34;;;;;;;1.83;1.10;;;;;;;;;;5041341;28;20116;-60
2022/08/01 09:21:06;;;;;;;3.90;1.20;;;;;;;;;;5052021;28;20033;-60
2022/08/01 09:23:39;;;;;;;3.80;1.30;;;;;;;;;;5050434;28;20487;-60
2022/08/01 09:26:05;;;;;;;;;;;;;;;;;;5052687;28;20087;-60
2022/08/01 09:28:31;;;;;;;2.58;1.20;;;;;;;;;;5050462;28;19967;-61
2022/08/01 09:30:58;;;;;;;5.00;1.30;;;;;;;;;;5050681;28;20335;-60
2022/08/01 09:33:24;;;;;;;2.22;1.50;;;;;;;;;;5054358;28;20033;-61
2022/08/01 09:35:57;;;;;;;1.67;1.13;;;;;;;;;;5044949;28;20388;-61
2022/08/01 09:38:23;;;;;;;;;;;;;;;;;;5051419;28;20075;-60
2022/08/01 09:40:56;;;;;;;1.20;0.80;;;;;;;;;;5053020;28;20442;-60
2022/08/01 09:43:24;;;;;;;1.52;1.20;;;;;;;;;;5051794;28;20112;-60
2022/08/01 09:45:50;;;;;;;2.05;1.00;;;;;;;;;;5057564;28;20029;-60
2022/08/01 09:48:16;;;;;;;3.38;1.30;;;;;;;;;;5057007;28;20048;-61
2022/08/01 09:50:43;;;;;;;1.70;0.80;;;;;;;;;;5044813;28;20481;-61
2022/08/01 09:53:10;;;;;;;2.35;0.93;;;;;;;;;;5049481;28;20388;-60
2022/08/01 09:55:36;;;;;;;1.10;1.00;;;;;;;;;;5051468;28;20021;-60
2022/08/01 09:58:04;;;;;;;1.73;0.80;;;;;;;;;;5051790;28;20632;-61
2022/08/01 10:00:30;;;;;;;1.65;0.88;;;;;;;;;;5057736;28;20024;-60
2022/08/01 10:02:56;;;;;;;3.42;0.70;;;;;;;;;;5057431;28;20047;-60
2022/08/01 10:05:32;;;;;;;1.23;0.80;;;;;;;;;;5058052;28;20628;-60
2022/08/01 10:07:59;;;;;;;1.48;0.85;;;;;;;;;;5051420;28;20044;-60
2022/08/01 10:10:25;;;;;;;3.33;0.90;;;;;;;;;;5049699;28;20480;-62
2022/08/01 10:12:52;;;;;;;1.13;0.85;;;;;;;;;;5058756;28;20029;-60
2022/08/01 10:15:20;;;;;;;1.58;0.85;;;;;;;;;;5052052;28;20048;-61
2022/08/01 10:17:52;;;;;;;3.42;0.75;;;;;;;;;;5058791;28;20037;-61
2022/08/01 10:20:20;;;;;;;1.03;0.70;;;;;;;;;;5038828;28;20039;-60
2022/08/01 10:22:46;;;;;;;4.40;1.00;;;;;;;;;;5050071;28;20702;-61
2022/08/01 10:25:16;;;;;;;1.95;0.85;;;;;;;;;;5051247;28;20039;-60
2022/08/01 10:27:45;;;;;;;2.88;0.73;;;;;;;;;;5051038;28;20499;-60
2022/08/01 10:30:11;;;;;;;4.10;0.90;;;;;;;;;;5033769;28;20029;-60
2022/08/01 10:32:37;;;;;;;3.95;1.17;;;;;;;;;;5051214;28;20136;-61
2022/08/01 10:35:07;;;;;;;1.50;0.70;;;;;;;;;;5053340;28;20480;-60
2022/08/01 10:37:35;;;;;;;0.82;0.70;;;;;;;;;;5056756;28;20437;-60
2022/08/01 10:40:01;;;;;;;1.48;1.00;;;;;;;;;;5045842;28;20044;-60
2022/08/01 10:42:27;;;;;;;2.35;0.80;;;;;;;;;;5059888;28;20024;-60
2022/08/01 10:44:54;;;;;;;3.00;0.65;;;;;;;;;;5052972;28;20369;-60
2022/08/01 10:47:24;;;;;;;1.15;0.65;;;;;;;;;;5061801;28;20533;-60
2022/08/01 10:50:03;;;;;;;4.57;0.90;;;;;;;;;;5050016;28;20060;-60
2022/08/01 10:52:29;;;;;;;1.27;0.75;;;;;;;;;;5050577;28;20041;-61
2022/08/01 10:55:05;;;;;;;1.50;0.90;;;;;;;;;;5050794;28;20473;-61
2022/08/01 10:57:44;;;;;;;1.48;0.73;;;;;;;;;;5049147;28;20053;-61
2022/08/01 11:00:17;;;;;;;1.02;0.68;;;;;;;;;;5036604;28;20477;-60
2022/08/01 11:02:57;;;;;;;1.17;0.90;;;;;;;;;;5042788;28;20029;-60
2022/08/01 11:05:23;;;;;;;2.88;0.65;;;;;;;;;;5059572;28;20036;-60
2022/08/01 11:07:53;;;;;;;1.50;0.77;;;;;;;;;;5064795;28;20024;-60
2022/08/01 11:10:38;;;;;;;2.08;0.80;;;;;;;;;;5051311;28;20032;-60
2022/08/01 11:13:07;;;;;;;3.00;1.08;;;;;;;;;;5051760;28;20048;-60
2022/08/01 11:15:33;;;;;;;1.38;0.70;;;;;;;;;;5049259;28;20033;-60
2022/08/01 11:18:00;;;;;;;0.77;0.68;;;;;;;;;;5061425;28;20032;-61
2022/08/01 11:20:30;;;;;;;2.10;0.88;;;;;;;;;;5049907;28;20071;-60
2022/08/01 11:23:05;;;;;;;2.13;0.75;;;;;;;;;;5055396;28;20031;-60
2022/08/01 11:25:36;;;;;;;1.75;0.80;;;;;;;;;;5051968;28;20527;-60
2022/08/01 11:28:25;;;;;;;0.93;0.60;;;;;;;;;;5055396;28;20929;-60
2022/08/01 11:30:54;;;;;;;2.00;0.80;;;;;;;;;;5057040;28;20029;-60
2022/08/01 11:33:40;;;;;;;1.67;0.55;;;;;;;;;;5053641;28;20384;-60
2022/08/01 11:38:39;;;;;;;2.40;0.80;;;;;;;;;;5045715;28;20540;-60
2022/08/01 11:41:11;;;;;;;3.53;0.90;;;;;;;;;;5051282;28;20051;-60
2022/08/01 11:43:55;;;;;;;0.82;0.60;;;;;;;;;;5044858;28;20037;-60
2022/08/01 11:46:41;;;;;;;1.00;0.60;;;;;;;;;;5051397;28;20079;-61
2022/08/01 11:49:25;;;;;;;2.70;0.60;;;;;;;;;;5048947;28;20492;-60
2022/08/01 11:51:58;;;;;;;1.85;0.47;;;;;;;;;;5054566;28;20037;-60
2022/08/01 11:54:24;;;;;;;;;;;;;;;;;;5053932;28;20032;-60
2022/08/01 11:56:50;;;;;;;14.27;1.23;;;;;;;;;;5053933;28;19935;-59
2022/08/01 11:59:16;;;;;;;1.55;0.60;;;;;;;;;;5060766;28;20451;-60
2022/08/01 12:01:42;;;;;;;1.02;0.82;;;;;;;;;;5050307;28;20159;-61
2022/08/01 12:04:08;;;;;;;2.08;0.85;;;;;;;;;;5045303;28;20681;-60
2022/08/01 12:06:34;;;;;;;1.42;0.70;;;;;;;;;;5046825;28;20401;-60
2022/08/01 12:09:19;;;;;;;6.05;1.00;;;;;;;;;;5050431;28;20392;-60
2022/08/01 12:11:45;;;;;;;2.97;1.35;;;;;;;;;;5056482;28;20029;-60
2022/08/01 12:14:16;;;;;;;1.00;0.60;;;;;;;;;;5046043;28;20035;-61
2022/08/01 12:16:48;;;;;;;1.85;0.73;;;;;;;;;;5054697;28;20020;-60
2022/08/01 12:19:24;;;;;;;2.15;0.40;;;;;;;;;;5049533;28;20025;-61
2022/08/01 12:22:09;;;;;;;1.50;0.50;;;;;;;;;;5047633;28;20032;-60
2022/08/01 12:24:35;;;;;;;3.13;0.60;;;;;;;;;;5058261;28;20511;-61
2022/08/01 12:27:02;;;;;;;2.92;0.60;;;;;;;;;;5052069;28;20103;-61
2022/08/01 12:29:39;;;;;;;2.50;0.60;;;;;;;;;;5049455;28;20074;-61
2022/08/01 12:32:05;;;;;;;1.05;0.55;;;;;;;;;;5050374;28;20039;-61
2022/08/01 12:34:33;;;;;;;96.45;7.47;;;;;;;;;;5052418;28;20527;-61
2022/08/01 12:37:02;;;;;;;1.10;0.50;;;;;;;;;;5051695;28;20116;-61
2022/08/01 12:39:33;;;;;;;1.27;0.47;;;;;;;;;;5052981;28;20099;-60
2022/08/01 12:42:00;;;;;;;0.65;0.22;;;;;;;;;;5043734;28;20107;-61
2022/08/01 12:44:28;;;;;;;4.40;0.57;;;;;;;;;;5051777;28;20029;-61
2022/08/01 12:46:54;;;;;;;0.50;0.40;;;;;;;;;;5051602;28;20032;-61
2022/08/01 12:49:20;;;;;;;1.92;0.40;;;;;;;;;;5051030;28;20587;-60
2022/08/01 12:51:46;;;;;;;0.95;0.40;;;;;;;;;;5052566;28;20512;-60
2022/08/01 12:54:13;;;;;;;14.45;1.35;;;;;;;;;;5034925;28;20085;-61
2022/08/01 12:56:39;;;;;;;1.95;0.45;;;;;;;;;;5061305;28;20346;-60
2022/08/01 12:59:28;;;;;;;2.13;0.30;;;;;;;;;;5055624;28;20088;-61
2022/08/01 13:01:55;;;;;;;4.57;0.95;;;;;;;;;;5054634;28;20044;-60
2022/08/01 13:04:22;;;;;;;3.40;0.40;;;;;;;;;;5049562;28;20472;-61
2022/08/01 13:06:49;;;;;;;2.78;0.60;;;;;;;;;;5046959;28;20823;-59
2022/08/01 13:09:15;;;;;;;2.13;0.50;;;;;;;;;;5045429;28;20027;-60
2022/08/01 13:11:41;;;;;;;0.60;0.22;;;;;;;;;;5044121;28;20082;-60
2022/08/01 13:14:07;;;;;;;0.73;0.40;;;;;;;;;;5052391;28;20465;-61
2022/08/01 13:16:45;;;;;;;1.23;0.47;;;;;;;;;;5051324;28;20045;-61
2022/08/01 13:19:12;;;;;;;0.95;0.40;;;;;;;;;;5054209;28;20033;-60
2022/08/01 13:21:38;;;;;;;1.50;0.50;;;;;;;;;;5051610;28;20476;-60
2022/08/01 13:24:09;;;;;;;0.93;0.30;;;;;;;;;;5049654;28;20472;-61
2022/08/01 13:26:45;;;;;;;0.45;0.20;;;;;;;;;;5051788;28;20025;-62
2022/08/01 13:29:13;;;;;;;8.40;0.50;;;;;;;;;;5045765;28;20107;-61
2022/08/01 13:31:39;;;;;;;0.75;0.30;;;;;;;;;;5046422;28;20039;-62
2022/08/01 13:34:06;;;;;;;2.03;0.30;;;;;;;;;;5053989;28;20025;-60
2022/08/01 13:36:32;;;;;;;0.63;0.20;;;;;;;;;;5046878;28;20029;-62
2022/08/01 13:41:44;;;;;;;2.92;0.35;;;;;;;;;;5061269;28;20606;-60
2022/08/01 13:44:10;;;;;;;5.40;0.60;;;;;;;;;;5044349;28;20091;-61
2022/08/01 13:46:38;;;;;;;0.57;0.28;;;;;;;;;;5049288;28;20541;-61
2022/08/01 13:49:04;;;;;;;0.60;0.30;;;;;;;;;;5055032;28;20038;-60
2022/08/01 13:51:30;;;;;;;0.40;0.20;;;;;;;;;;5048305;28;20025;-61
2022/08/01 13:53:56;;;;;;;0.98;0.30;;;;;;;;;;5062531;28;20044;-61
2022/08/01 13:56:22;;;;;;;1.67;0.38;;;;;;;;;;5044880;28;20040;-60
2022/08/01 13:58:48;;;;;;;1.73;0.30;;;;;;;;;;5052568;28;20131;-60
2022/08/01 14:01:14;;;;;;;1.42;0.45;;;;;;;;;;5050318;28;21514;-61
2022/08/01 14:03:40;;;;;;;2.75;0.43;;;;;;;;;;5047059;28;21782;-62
2022/08/01 14:06:06;;;;;;;1.20;0.30;;;;;;;;;;5051465;28;20065;-60
2022/08/01 14:08:33;;;;;;;0.95;0.20;;;;;;;;;;5049261;28;20712;-61
2022/08/01 14:10:59;;;;;;;2.30;0.30;;;;;;;;;;5054747;28;20115;-62
2022/08/01 14:13:25;;;;;;;0.52;0.20;;;;;;;;;;5048835;28;20072;-59
2022/08/01 14:15:51;;;;;;;0.85;0.20;;;;;;;;;;5053709;28;20032;-60
2022/08/01 14:18:18;;;;;;;0.73;0.22;;;;;;;;;;5048609;28;20037;-60
2022/08/01 14:20:44;;;;;;;5.60;0.32;;;;;;;;;;5049676;28;20025;-60
2022/08/01 14:23:10;;;;;;;0.25;0.08;;;;;;;;;;5048280;28;20111;-60
2022/08/01 14:25:40;;;;;;;0.10;0.10;;;;;;;;;;5048099;28;20017;-60
2022/08/01 14:28:06;;;;;;;0.50;0.20;;;;;;;;;;5048966;28;20029;-60
2022/08/01 14:30:33;;;;;;;0.73;0.20;;;;;;;;;;5055653;28;20108;-59
2022/08/01 14:32:58;;;;;;;1.13;0.30;;;;;;;;;;5050018;28;20056;-60
2022/08/01 14:35:24;;;;;;;0.28;0.17;;;;;;;;;;5047823;28;20060;-59
2022/08/01 14:37:51;;;;;;;1.27;0.20;;;;;;;;;;5042227;28;20029;-59
2022/08/01 14:40:17;;;;;;;0.35;0.20;;;;;;;;;;5047862;28;20032;-60
2022/08/01 14:42:44;;;;;;;0.95;0.17;;;;;;;;;;5040729;28;20029;-59
2022/08/01 14:45:10;;;;;;;2.45;0.10;;;;;;;;;;5049281;28;20039;-59
2022/08/01 14:47:37;;;;;;;0.80;0.20;;;;;;;;;;5054098;28;20040;-59
2022/08/01 14:50:05;;;;;;;1.52;0.35;;;;;;;;;;5057660;28;20104;-59
2022/08/01 14:52:31;;;;;;;0.40;0.30;;;;;;;;;;5042494;28;20125;-59